Time;durP1;ratioP1;P1;durP2;ratioP2;P2;SDS_P1;SDS_P2;PMS_P1;PMS_P2;Temp;Humidity;BMP_temperature;BMP_pressure;BME280_temperature;BME280_humidity;BME280_pressure;Samples;Min_cycle;Max_cycle;Signal;HPM_P1;HPM_P2
2021/05/13 00:00:07;;;;;;;2.37;2.17;;;;;20.20;99841.00;;;;2074563;28;20305;-51
2021/05/13 00:01:08;;;;;;;2.47;2.28;;;;;20.20;99843.00;;;;2070797;28;20214;-52
2021/05/13 00:02:08;;;;;;;2.47;2.27;;;;;20.20;99842.00;;;;2075807;28;20811;-51
2021/05/13 00:03:08;;;;;;;2.43;2.23;;;;;20.20;99838.00;;;;2078702;28;20355;-51
2021/05/13 00:04:09;;;;;;;2.20;2.00;;;;;20.20;99831.00;;;;2074190;28;20291;-51
2021/05/13 00:05:10;;;;;;;2.30;2.20;;;;;20.20;99835.00;;;;2072959;28;20222;-51
2021/05/13 00:06:10;;;;;;;2.40;2.20;;;;;20.20;99833.00;;;;2077076;28;20222;-51
2021/05/13 00:07:10;;;;;;;2.00;1.90;;;;;20.20;99840.00;;;;2076162;28;20260;-51
2021/05/13 00:08:11;;;;;;;2.00;1.90;;;;;20.20;99833.00;;;;2073721;28;20222;-51
2021/05/13 00:09:11;;;;;;;2.57;2.37;;;;;20.20;99828.00;;;;2075249;28;20579;-51
2021/05/13 00:10:15;;;;;;;2.80;2.30;;;;;20.20;99837.00;;;;2070704;28;20621;-51
2021/05/13 00:11:17;;;;;;;2.28;2.08;;;;;20.20;99840.00;;;;2073473;28;20225;-52
2021/05/13 00:12:37;;;;;;;2.30;2.13;;;;;20.10;99844.00;;;;2070466;28;20800;-52
2021/05/13 00:13:38;;;;;;;2.33;2.20;;;;;20.20;99833.00;;;;2073807;28;20224;-51
2021/05/13 00:14:39;;;;;;;2.15;2.00;;;;;20.20;99829.00;;;;2070285;28;20228;-51
2021/05/13 00:15:40;;;;;;;2.50;2.30;;;;;20.20;99835.00;;;;2077794;28;20895;-51
2021/05/13 00:16:41;;;;;;;2.60;2.40;;;;;20.20;99829.00;;;;2076124;28;20228;-51
2021/05/13 00:17:41;;;;;;;2.40;2.20;;;;;20.20;99837.00;;;;2076746;28;20237;-51
2021/05/13 00:18:41;;;;;;;2.50;2.20;;;;;20.20;99832.00;;;;2074222;28;20563;-52
2021/05/13 00:19:42;;;;;;;2.20;2.10;;;;;20.20;99836.00;;;;2070490;28;20219;-51
2021/05/13 00:20:42;;;;;;;2.47;2.27;;;;;20.20;99829.00;;;;2073439;28;20210;-51
2021/05/13 00:21:43;;;;;;;2.53;2.33;;;;;20.20;99831.00;;;;2074846;28;20209;-51
2021/05/13 00:22:44;;;;;;;2.33;2.22;;;;;20.20;99836.00;;;;2074994;28;20229;-51
2021/05/13 00:23:44;;;;;;;2.50;2.30;;;;;20.20;99833.00;;;;2077837;28;20206;-51
2021/05/13 00:24:44;;;;;;;2.10;1.97;;;;;20.20;99835.00;;;;2074287;28;20217;-51
2021/05/13 00:25:47;;;;;;;2.87;2.67;;;;;20.20;99832.00;;;;2074354;28;20341;-51
2021/05/13 00:26:48;;;;;;;2.33;2.22;;;;;20.20;99832.00;;;;2073802;28;20210;-52
2021/05/13 00:27:49;;;;;;;2.10;2.00;;;;;20.20;99838.00;;;;2079215;28;20214;-51
2021/05/13 00:28:49;;;;;;;2.43;2.23;;;;;20.20;99826.00;;;;2079362;28;20467;-51
2021/05/13 00:29:50;;;;;;;2.30;2.20;;;;;20.20;99828.00;;;;2079393;28;20217;-52
2021/05/13 00:30:51;;;;;;;2.40;2.20;;;;;20.20;99827.00;;;;2079267;28;20257;-52
2021/05/13 00:31:51;;;;;;;2.65;2.45;;;;;20.20;99837.00;;;;2079296;28;20298;-52
2021/05/13 00:32:52;;;;;;;2.80;2.60;;;;;20.20;99831.00;;;;2078913;28;20226;-51
2021/05/13 00:33:52;;;;;;;3.00;2.70;;;;;20.20;99826.00;;;;2078860;28;20260;-52
2021/05/13 00:34:53;;;;;;;2.43;2.23;;;;;20.20;99829.00;;;;2071240;28;20223;-51
2021/05/13 00:35:53;;;;;;;2.87;2.67;;;;;20.20;99827.00;;;;2071459;28;20258;-51
2021/05/13 00:36:53;;;;;;;2.63;2.43;;;;;20.10;99826.00;;;;2071159;28;20218;-52
2021/05/13 00:37:54;;;;;;;2.53;2.33;;;;;20.20;99827.00;;;;2070689;28;20297;-52
2021/05/13 00:38:54;;;;;;;2.30;2.10;;;;;20.20;99824.00;;;;2071267;28;20264;-51
2021/05/13 00:39:55;;;;;;;2.50;2.30;;;;;20.20;99826.00;;;;2075311;28;20264;-51
2021/05/13 00:40:55;;;;;;;2.53;2.33;;;;;20.20;99830.00;;;;2072698;28;20686;-51
2021/05/13 00:41:55;;;;;;;2.73;2.47;;;;;20.20;99828.00;;;;2072568;28;20646;-52
2021/05/13 00:42:56;;;;;;;2.20;2.10;;;;;20.20;99825.00;;;;2071770;28;20222;-52
2021/05/13 00:43:56;;;;;;;2.43;2.33;;;;;20.20;99826.00;;;;2071253;28;20234;-52
2021/05/13 00:44:57;;;;;;;2.60;2.40;;;;;20.20;99823.00;;;;2071600;28;20626;-52
2021/05/13 00:45:57;;;;;;;2.67;2.47;;;;;20.20;99826.00;;;;2074305;28;20516;-51
2021/05/13 00:46:57;;;;;;;2.27;2.17;;;;;20.20;99826.00;;;;2079962;28;20586;-51
2021/05/13 00:49:11;;;;;;;2.80;2.60;;;;;20.20;99831.00;;;;2079825;28;20228;-52
2021/05/13 00:50:11;;;;;;;2.33;2.20;;;;;20.20;99831.00;;;;2079889;28;20761;-51
2021/05/13 00:51:12;;;;;;;2.70;2.50;;;;;20.20;99831.00;;;;2079904;28;20225;-51
2021/05/13 00:52:13;;;;;;;2.40;2.20;;;;;20.20;99829.00;;;;2079591;28;20275;-52
2021/05/13 00:53:13;;;;;;;2.80;2.60;;;;;20.20;99833.00;;;;2079809;28;20268;-51
2021/05/13 00:54:13;;;;;;;2.60;2.40;;;;;20.20;99836.00;;;;2078966;28;20214;-51
2021/05/13 00:55:15;;;;;;;2.30;2.20;;;;;20.20;99838.00;;;;2062874;28;20314;-51
2021/05/13 00:56:15;;;;;;;2.72;2.53;;;;;20.10;99832.00;;;;2063021;28;20219;-52
2021/05/13 00:57:16;;;;;;;2.70;2.50;;;;;20.20;99836.00;;;;2071519;28;20233;-52
2021/05/13 00:58:16;;;;;;;2.40;2.20;;;;;20.20;99833.00;;;;2071404;28;20315;-52
2021/05/13 00:59:18;;;;;;;2.57;2.37;;;;;20.20;99833.00;;;;2071470;28;20214;-51
2021/05/13 01:02:47;;;;;;;2.80;2.60;;;;;20.10;99824.00;;;;2075809;28;20214;-51
2021/05/13 01:03:48;;;;;;;2.90;2.70;;;;;20.10;99824.00;;;;2078349;28;20221;-51
2021/05/13 01:04:48;;;;;;;2.70;2.50;;;;;20.10;99819.00;;;;2075289;28;20277;-51
2021/05/13 01:05:49;;;;;;;2.30;2.20;;;;;20.20;99824.00;;;;2079608;28;20224;-51
2021/05/13 01:06:49;;;;;;;2.67;2.47;;;;;20.10;99823.00;;;;2079594;28;20230;-51
2021/05/13 01:07:49;;;;;;;2.60;2.40;;;;;20.20;99824.00;;;;2079046;28;20218;-51
2021/05/13 01:08:50;;;;;;;2.07;1.90;;;;;20.10;99822.00;;;;2079064;28;20218;-51
2021/05/13 01:09:50;;;;;;;2.57;2.37;;;;;20.10;99822.00;;;;2078057;28;20213;-51
2021/05/13 01:10:50;;;;;;;2.80;2.60;;;;;20.10;99820.00;;;;2074223;28;20233;-52
2021/05/13 01:11:54;;;;;;;2.13;2.03;;;;;20.10;99820.00;;;;2072936;28;20298;-51
2021/05/13 01:12:58;;;;;;;2.80;2.60;;;;;20.10;99820.00;;;;2070361;28;20206;-52
2021/05/13 01:14:03;;;;;;;2.30;2.10;;;;;20.10;99817.00;;;;2070281;28;20281;-51
2021/05/13 01:15:10;;;;;;;2.83;2.63;;;;;20.10;99821.00;;;;2071365;28;20237;-51
2021/05/13 01:16:12;;;;;;;2.40;2.20;;;;;20.10;99822.00;;;;2075564;28;20305;-51
2021/05/13 01:18:19;;;;;;;2.65;2.45;;;;;20.10;99774.00;;;;2071688;28;20249;-51
2021/05/13 01:19:19;;;;;;;2.30;2.20;;;;;20.10;99813.00;;;;2075767;28;20221;-51
2021/05/13 01:20:20;;;;;;;2.80;2.60;;;;;20.10;99822.00;;;;2079668;28;20222;-51
2021/05/13 01:21:20;;;;;;;2.53;2.33;;;;;20.10;99803.00;;;;2079715;28;20682;-51
2021/05/13 01:22:22;;;;;;;2.73;2.53;;;;;20.20;99810.00;;;;2079340;28;20733;-51
2021/05/13 01:23:22;;;;;;;2.45;2.25;;;;;20.10;99807.00;;;;2079622;28;20225;-51
2021/05/13 01:24:23;;;;;;;2.80;2.60;;;;;20.10;99807.00;;;;2079023;28;20304;-51
2021/05/13 01:25:23;;;;;;;2.50;2.30;;;;;20.10;99807.00;;;;2079604;28;20226;-51
2021/05/13 01:26:24;;;;;;;2.50;2.30;;;;;20.10;99803.00;;;;2078362;28;20441;-51
2021/05/13 01:27:24;;;;;;;2.87;2.67;;;;;20.10;99807.00;;;;2079639;28;20222;-51
2021/05/13 01:28:26;;;;;;;2.80;2.60;;;;;20.10;99808.00;;;;2076184;28;20223;-51
2021/05/13 01:29:27;;;;;;;2.83;2.58;;;;;20.10;99808.00;;;;2070521;28;20226;-53
2021/05/13 01:30:28;;;;;;;2.63;2.43;;;;;20.10;99797.00;;;;2076070;28;20218;-51
2021/05/13 01:31:29;;;;;;;2.40;2.20;;;;;20.10;99795.00;;;;2079225;28;20214;-51
2021/05/13 01:32:29;;;;;;;2.80;2.60;;;;;20.10;99801.00;;;;2079541;28;20222;-52
2021/05/13 01:33:29;;;;;;;2.47;2.27;;;;;20.10;99799.00;;;;2079415;28;20232;-51
2021/05/13 01:34:30;;;;;;;2.77;2.57;;;;;20.10;99802.00;;;;2076867;28;20209;-51
2021/05/13 01:35:30;;;;;;;2.70;2.50;;;;;20.10;99803.00;;;;2073843;28;20300;-52
2021/05/13 01:36:31;;;;;;;2.70;2.50;;;;;20.10;99800.00;;;;2079581;28;20221;-53
2021/05/13 01:37:32;;;;;;;2.87;2.57;;;;;20.10;99796.00;;;;2079335;28;20764;-52
2021/05/13 01:38:32;;;;;;;2.60;2.40;;;;;20.10;99806.00;;;;2079109;28;20445;-52
2021/05/13 01:39:32;;;;;;;2.43;2.27;;;;;20.10;99802.00;;;;2078870;28;20218;-53
2021/05/13 01:40:33;;;;;;;2.30;2.20;;;;;20.10;99804.00;;;;2071744;28;20207;-52
2021/05/13 01:41:34;;;;;;;2.37;2.17;;;;;20.10;99799.00;;;;2075098;28;20214;-51
2021/05/13 01:42:34;;;;;;;2.20;2.00;;;;;20.10;99802.00;;;;2074967;28;20214;-52
2021/05/13 01:43:34;;;;;;;2.20;2.10;;;;;20.10;99801.00;;;;2071323;28;21208;-52
2021/05/13 01:44:35;;;;;;;2.60;2.40;;;;;20.10;99805.00;;;;2070456;28;20241;-51
2021/05/13 01:45:35;;;;;;;2.50;2.30;;;;;20.10;99796.00;;;;2073485;28;20215;-51
2021/05/13 01:46:36;;;;;;;2.70;2.50;;;;;20.10;99798.00;;;;2076046;28;20750;-51
2021/05/13 01:47:36;;;;;;;2.30;2.10;;;;;20.10;99800.00;;;;2079825;28;20574;-51
2021/05/13 01:48:37;;;;;;;2.73;2.53;;;;;20.10;99797.00;;;;2079447;28;20317;-51
2021/05/13 01:49:38;;;;;;;2.37;2.20;;;;;20.10;99796.00;;;;2076496;28;20317;-51
2021/05/13 01:50:39;;;;;;;2.80;2.60;;;;;20.10;99794.00;;;;2075305;28;20213;-51
2021/05/13 01:51:39;;;;;;;2.67;2.47;;;;;20.10;99793.00;;;;2075790;28;20222;-51
2021/05/13 01:52:39;;;;;;;2.43;2.23;;;;;20.10;99795.00;;;;2071698;28;20733;-51
2021/05/13 01:53:40;;;;;;;2.80;2.60;;;;;20.10;99792.00;;;;2072000;28;20622;-51
2021/05/13 01:54:41;;;;;;;2.60;2.40;;;;;20.10;99795.00;;;;2079010;28;20303;-51
2021/05/13 01:55:41;;;;;;;2.70;2.50;;;;;20.10;99795.00;;;;2073935;28;20257;-51
2021/05/13 01:56:42;;;;;;;2.83;2.17;;;;;20.10;99790.00;;;;2071329;28;20202;-52
2021/05/13 01:57:42;;;;;;;2.50;2.30;;;;;20.10;99793.00;;;;2071092;28;20290;-51
2021/05/13 01:58:42;;;;;;;2.70;2.50;;;;;20.10;99791.00;;;;2071024;28;20677;-51
2021/05/13 01:59:43;;;;;;;2.70;2.50;;;;;20.10;99788.00;;;;2070316;28;20235;-52
2021/05/13 02:00:45;;;;;;;2.40;2.20;;;;;20.10;99790.00;;;;2071248;28;20202;-51
2021/05/13 02:01:45;;;;;;;2.45;2.20;;;;;20.10;99789.00;;;;2071054;28;20210;-51
2021/05/13 02:02:47;;;;;;;2.50;2.30;;;;;20.10;99788.00;;;;2071405;28;20293;-51
2021/05/13 02:03:48;;;;;;;2.60;2.40;;;;;20.10;99791.00;;;;2071076;28;20730;-51
2021/05/13 02:04:48;;;;;;;2.50;2.30;;;;;20.10;99787.00;;;;2070639;28;20293;-51
2021/05/13 02:05:48;;;;;;;2.50;2.30;;;;;20.10;99790.00;;;;2071343;28;20220;-51
2021/05/13 02:06:49;;;;;;;3.00;2.80;;;;;20.10;99788.00;;;;2072532;28;20319;-51
2021/05/13 02:07:49;;;;;;;2.73;2.53;;;;;20.10;99792.00;;;;2079164;28;20210;-52
2021/05/13 02:08:50;;;;;;;2.60;2.40;;;;;20.10;99786.00;;;;2078107;28;20206;-51
2021/05/13 02:09:50;;;;;;;2.70;2.50;;;;;20.10;99788.00;;;;2076339;28;20249;-51
2021/05/13 02:10:50;;;;;;;2.70;2.50;;;;;20.10;99788.00;;;;2074472;28;20313;-52
2021/05/13 02:11:51;;;;;;;2.73;2.53;;;;;20.10;99786.00;;;;2073878;28;20218;-51
2021/05/13 02:12:51;;;;;;;2.80;2.60;;;;;20.10;99779.00;;;;2077036;28;20651;-51
2021/05/13 02:13:52;;;;;;;2.40;2.20;;;;;20.10;99780.00;;;;2078862;28;20610;-51
2021/05/13 02:14:52;;;;;;;2.53;2.33;;;;;20.10;99773.00;;;;2078479;28;20222;-51
2021/05/13 02:15:52;;;;;;;2.63;2.43;;;;;20.10;99781.00;;;;2071171;28;20575;-51
2021/05/13 02:16:53;;;;;;;2.33;2.13;;;;;20.10;99779.00;;;;2075964;28;20585;-51
2021/05/13 02:17:53;;;;;;;2.73;2.53;;;;;20.10;99776.00;;;;2073547;28;20218;-51
2021/05/13 02:18:54;;;;;;;2.47;2.27;;;;;20.10;99777.00;;;;2070992;28;20234;-51
2021/05/13 02:19:54;;;;;;;2.57;2.37;;;;;20.10;99779.00;;;;2071156;28;20779;-51
2021/05/13 02:20:54;;;;;;;2.53;2.37;;;;;20.10;99779.00;;;;2071189;28;20287;-51
2021/05/13 02:21:55;;;;;;;2.73;2.53;;;;;20.10;99772.00;;;;2070934;28;20210;-51
2021/05/13 02:22:57;;;;;;;2.20;2.10;;;;;20.10;99770.00;;;;2070544;28;20777;-51
2021/05/13 02:23:57;;;;;;;2.42;2.30;;;;;20.10;99768.00;;;;2068974;28;20227;-51
2021/05/13 02:24:58;;;;;;;2.90;2.70;;;;;20.10;99765.00;;;;2069962;28;20230;-51
2021/05/13 02:25:59;;;;;;;3.00;2.77;;;;;20.10;99766.00;;;;2078760;28;20214;-51
2021/05/13 02:27:00;;;;;;;2.28;2.17;;;;;20.10;99760.00;;;;2078543;28;20264;-51
2021/05/13 02:28:00;;;;;;;2.47;2.27;;;;;20.10;99764.00;;;;2078418;28;20297;-51
2021/05/13 02:29:00;;;;;;;2.60;2.40;;;;;20.10;99760.00;;;;2078274;28;20232;-51
2021/05/13 02:30:01;;;;;;;2.63;2.43;;;;;20.10;99767.00;;;;2078289;28;20222;-51
2021/05/13 02:31:01;;;;;;;2.13;2.03;;;;;20.10;99757.00;;;;2079248;28;20233;-51
2021/05/13 02:32:01;;;;;;;2.47;2.30;;;;;20.10;99766.00;;;;2079173;28;20210;-52
2021/05/13 02:33:02;;;;;;;3.80;2.50;;;;;20.10;99761.00;;;;2079151;28;20209;-51
2021/05/13 02:34:02;;;;;;;2.47;2.37;;;;;20.10;99766.00;;;;2078388;28;20214;-51
2021/05/13 02:35:04;;;;;;;2.70;2.50;;;;;20.10;99760.00;;;;2078854;28;20253;-51
2021/05/13 02:36:05;;;;;;;2.17;2.08;;;;;20.10;99761.00;;;;2078741;28;20686;-56
2021/05/13 02:37:05;;;;;;;2.53;2.33;;;;;20.10;99757.00;;;;2077811;28;20313;-52
2021/05/13 02:38:05;;;;;;;2.60;2.40;;;;;20.10;99761.00;;;;2065936;28;20220;-52
2021/05/13 02:39:06;;;;;;;2.30;2.20;;;;;20.10;99758.00;;;;2070218;28;20223;-52
2021/05/13 02:40:07;;;;;;;2.50;2.30;;;;;20.10;99761.00;;;;2073841;28;20206;-52
2021/05/13 02:41:07;;;;;;;2.40;2.20;;;;;20.10;99749.00;;;;2073509;28;20371;-51
2021/05/13 02:42:08;;;;;;;2.20;2.10;;;;;20.10;99742.00;;;;2074443;28;20699;-53
2021/05/13 02:43:08;;;;;;;2.13;2.00;;;;;20.10;99744.00;;;;2072596;28;20219;-52
2021/05/13 02:44:08;;;;;;;2.77;2.57;;;;;20.10;99750.00;;;;2076021;28;20658;-51
2021/05/13 02:45:09;;;;;;;2.97;2.10;;;;;20.10;99747.00;;;;2078168;28;20598;-52
2021/05/13 02:46:10;;;;;;;2.70;2.50;;;;;20.10;99750.00;;;;2078253;28;20249;-51
2021/05/13 02:47:10;;;;;;;2.00;1.80;;;;;20.10;99742.00;;;;2079059;28;20206;-52
2021/05/13 02:48:10;;;;;;;2.40;2.20;;;;;20.10;99751.00;;;;2078824;28;20301;-52
2021/05/13 02:49:11;;;;;;;2.87;2.67;;;;;20.10;99747.00;;;;2070723;28;20207;-52
2021/05/13 02:50:13;;;;;;;2.67;2.47;;;;;20.10;99752.00;;;;2070477;28;20261;-52
2021/05/13 02:51:13;;;;;;;2.53;2.33;;;;;20.10;99748.00;;;;2075169;28;20231;-51
2021/05/13 02:52:14;;;;;;;2.47;2.27;;;;;20.10;99747.00;;;;2078979;28;20556;-52
2021/05/13 02:53:14;;;;;;;2.67;2.47;;;;;20.10;99761.00;;;;2078900;28;20547;-52
2021/05/13 02:54:15;;;;;;;2.83;2.63;;;;;20.10;99751.00;;;;2071949;28;20206;-52
2021/05/13 02:55:15;;;;;;;2.57;2.37;;;;;20.10;99747.00;;;;2070886;28;20222;-51
2021/05/13 02:56:15;;;;;;;2.80;2.60;;;;;20.10;99751.00;;;;2070833;28;20301;-51
2021/05/13 02:57:16;;;;;;;2.33;2.23;;;;;20.10;99751.00;;;;2070719;28;20214;-52
2021/05/13 02:58:16;;;;;;;2.40;2.20;;;;;20.10;99750.00;;;;2070596;28;20249;-52
2021/05/13 02:59:17;;;;;;;2.10;2.00;;;;;20.10;99759.00;;;;2070721;28;20211;-51
2021/05/13 03:00:25;;;;;;;2.30;2.20;;;;;20.10;99752.00;;;;2070542;28;20210;-52
2021/05/13 03:01:26;;;;;;;2.30;2.20;;;;;20.10;99751.00;;;;2070883;28;20249;-52
2021/05/13 03:02:27;;;;;;;2.40;2.20;;;;;20.00;99755.00;;;;2070705;28;20304;-51
2021/05/13 03:03:27;;;;;;;2.90;2.70;;;;;20.10;99756.00;;;;2070373;28;21099;-51
2021/05/13 03:04:27;;;;;;;2.40;2.20;;;;;20.10;99756.00;;;;2070028;28;26376;-51
2021/05/13 03:05:28;;;;;;;2.43;2.23;;;;;20.10;99765.00;;;;2070847;28;20766;-51
2021/05/13 03:06:29;;;;;;;2.30;2.10;;;;;20.10;99761.00;;;;2070848;28;20617;-51
2021/05/13 03:07:29;;;;;;;2.57;2.37;;;;;20.10;99758.00;;;;2070603;28;20257;-51
2021/05/13 03:08:30;;;;;;;2.47;2.27;;;;;20.10;99764.00;;;;2070447;28;20579;-51
2021/05/13 03:09:31;;;;;;;2.57;2.37;;;;;20.10;99756.00;;;;2072123;28;20215;-51
2021/05/13 03:11:34;;;;;;;2.35;2.20;;;;;20.10;99766.00;;;;2072104;28;20445;-51
2021/05/13 03:12:35;;;;;;;2.00;1.90;;;;;20.10;99765.00;;;;2072454;28;20210;-51
2021/05/13 03:13:36;;;;;;;2.40;2.30;;;;;20.10;99770.00;;;;2076909;28;20214;-51
2021/05/13 03:14:37;;;;;;;2.45;2.25;;;;;20.10;99764.00;;;;2077359;28;20681;-51
2021/05/13 03:15:37;;;;;;;1.88;1.77;;;;;20.00;99761.00;;;;2078799;28;20241;-51
2021/05/13 03:16:38;;;;;;;2.43;2.23;;;;;20.10;99765.00;;;;2078821;28;20747;-51
2021/05/13 03:17:38;;;;;;;2.17;2.07;;;;;19.90;99769.00;;;;2078606;28;20221;-51
2021/05/13 03:18:39;;;;;;;1.87;1.77;;;;;20.10;99769.00;;;;2070498;28;20215;-51
2021/05/13 03:19:48;;;;;;;2.40;2.30;;;;;19.90;99775.00;;;;2070628;28;20207;-51
2021/05/13 03:20:57;;;;;;;2.53;2.33;;;;;20.00;99768.00;;;;2069331;28;20865;-51
2021/05/13 03:22:00;;;;;;;2.45;2.25;;;;;20.10;99770.00;;;;2078234;28;20221;-51
2021/05/13 03:23:01;;;;;;;2.25;2.15;;;;;20.10;99761.00;;;;2078395;28;20213;-52
2021/05/13 03:25:06;;;;;;;2.10;1.90;;;;;20.00;99763.00;;;;2078883;28;20213;-51
2021/05/13 03:26:07;;;;;;;2.50;2.30;;;;;20.00;99764.00;;;;2078687;28;20214;-51
2021/05/13 03:28:10;;;;;;;2.08;1.90;;;;;20.00;99770.00;;;;2078541;28;20218;-51
2021/05/13 03:29:10;;;;;;;2.83;2.63;;;;;20.00;99766.00;;;;2078665;28;20210;-51
2021/05/13 03:30:11;;;;;;;2.67;2.47;;;;;20.00;99762.00;;;;2078395;28;20809;-51
2021/05/13 03:31:11;;;;;;;2.20;2.10;;;;;20.00;99760.00;;;;2078558;28;20218;-51
2021/05/13 03:32:12;;;;;;;2.40;2.20;;;;;20.00;99756.00;;;;2074120;28;20214;-51
2021/05/13 03:33:13;;;;;;;2.23;2.10;;;;;20.00;99758.00;;;;2070503;28;20218;-54
2021/05/13 03:34:14;;;;;;;2.20;2.10;;;;;20.00;99759.00;;;;2067754;28;20221;-52
2021/05/13 03:35:15;;;;;;;2.63;2.45;;;;;20.00;99758.00;;;;2072944;28;20226;-52
2021/05/13 03:36:15;;;;;;;1.80;1.70;;;;;20.00;99752.00;;;;2070400;28;20297;-51
2021/05/13 03:37:15;;;;;;;2.63;2.43;;;;;20.00;99754.00;;;;2070363;28;20223;-51
2021/05/13 03:38:16;;;;;;;2.30;2.10;;;;;20.00;99760.00;;;;2070523;28;20227;-52
2021/05/13 03:39:16;;;;;;;3.00;2.43;;;;;20.00;99760.00;;;;2070750;28;20222;-53
2021/05/13 03:40:16;;;;;;;2.60;2.40;;;;;20.00;99763.00;;;;2073032;28;20322;-52
2021/05/13 03:41:17;;;;;;;2.20;2.10;;;;;20.00;99755.00;;;;2072629;28;20219;-51
2021/05/13 03:42:17;;;;;;;2.00;1.90;;;;;20.00;99759.00;;;;2072494;28;20226;-52
2021/05/13 03:43:17;;;;;;;2.20;2.00;;;;;20.00;99761.00;;;;2070687;28;20210;-51
2021/05/13 03:44:18;;;;;;;2.40;2.20;;;;;20.00;99750.00;;;;2069862;28;20230;-52
2021/05/13 03:45:18;;;;;;;2.30;2.20;;;;;20.00;99750.00;;;;2070219;28;20214;-52
2021/05/13 03:46:18;;;;;;;2.40;2.30;;;;;20.00;99754.00;;;;2070097;28;20214;-51
2021/05/13 03:47:19;;;;;;;2.10;2.00;;;;;20.00;99753.00;;;;2070685;28;20233;-51
2021/05/13 03:48:20;;;;;;;2.40;2.20;;;;;20.00;99746.00;;;;2070574;28;20633;-53
2021/05/13 03:49:20;;;;;;;2.33;2.20;;;;;20.00;99749.00;;;;2076785;28;20233;-52
2021/05/13 03:50:20;;;;;;;2.50;2.30;;;;;20.00;99742.00;;;;2078736;28;20301;-51
2021/05/13 03:51:21;;;;;;;2.20;2.10;;;;;20.00;99733.00;;;;2078518;28;20271;-51
2021/05/13 03:52:21;;;;;;;2.40;2.20;;;;;20.00;99732.00;;;;2078471;28;20641;-51
2021/05/13 03:53:21;;;;;;;2.23;2.13;;;;;20.00;99733.00;;;;2075073;28;20229;-51
2021/05/13 03:54:22;;;;;;;2.40;2.20;;;;;20.00;99736.00;;;;2069083;28;20218;-51
2021/05/13 03:55:22;;;;;;;2.30;2.07;;;;;20.00;99728.00;;;;2070431;28;20302;-52
2021/05/13 03:56:23;;;;;;;2.23;2.10;;;;;20.00;99732.00;;;;2070470;28;20207;-51
2021/05/13 03:57:23;;;;;;;2.20;2.10;;;;;20.00;99729.00;;;;2070335;28;20712;-52
2021/05/13 03:58:27;;;;;;;2.70;2.50;;;;;20.00;99729.00;;;;2070369;28;20301;-51
2021/05/13 03:59:34;;;;;;;1.95;1.85;;;;;20.00;99729.00;;;;2069440;28;20222;-52
2021/05/13 04:03:11;;;;;;;2.47;2.28;;;;;20.00;99725.00;;;;2072962;28;20214;-52
2021/05/13 04:04:11;;;;;;;2.13;1.90;;;;;20.00;99730.00;;;;2079354;28;20210;-51
2021/05/13 04:05:12;;;;;;;2.00;1.90;;;;;20.00;99730.00;;;;2080058;28;20208;-51
2021/05/13 04:06:13;;;;;;;2.13;2.03;;;;;20.00;99720.00;;;;2080007;28;20217;-51
2021/05/13 04:07:13;;;;;;;1.87;1.77;;;;;20.00;99730.00;;;;2080023;28;20241;-51
2021/05/13 04:08:14;;;;;;;1.97;1.87;;;;;20.00;99732.00;;;;2079488;28;20217;-51
2021/05/13 04:09:15;;;;;;;2.07;1.97;;;;;20.00;99731.00;;;;2079659;28;20594;-51
2021/05/13 04:10:15;;;;;;;2.10;2.00;;;;;20.00;99728.00;;;;2075602;28;20218;-51
2021/05/13 04:11:16;;;;;;;2.33;2.13;;;;;20.00;99730.00;;;;2073707;28;20690;-51
2021/05/13 04:12:16;;;;;;;2.33;2.08;;;;;20.00;99717.00;;;;2072893;28;20672;-51
2021/05/13 04:13:17;;;;;;;1.90;1.80;;;;;20.00;99726.00;;;;2071452;28;20313;-51
2021/05/13 04:14:17;;;;;;;2.30;2.20;;;;;20.00;99728.00;;;;2070412;28;20222;-52
2021/05/13 04:15:18;;;;;;;2.37;2.23;;;;;19.90;99723.00;;;;2071532;28;20226;-51
2021/05/13 04:16:26;;;;;;;2.10;2.00;;;;;20.00;99723.00;;;;2068332;28;20226;-51
2021/05/13 04:17:26;;;;;;;2.40;1.95;;;;;20.00;99729.00;;;;2071301;28;20281;-51
2021/05/13 04:18:27;;;;;;;2.10;2.00;;;;;20.00;99745.00;;;;2071112;28;20627;-51
2021/05/13 04:19:27;;;;;;;2.03;1.93;;;;;20.00;99724.00;;;;2071324;28;20215;-52
2021/05/13 04:20:27;;;;;;;2.10;2.00;;;;;20.00;99723.00;;;;2071079;28;20214;-52
2021/05/13 04:21:28;;;;;;;2.13;2.03;;;;;20.00;99731.00;;;;2071278;28;20298;-51
2021/05/13 04:22:28;;;;;;;2.40;2.20;;;;;20.00;99736.00;;;;2071489;28;20579;-52
2021/05/13 04:23:29;;;;;;;2.47;2.27;;;;;20.00;99716.00;;;;2071011;28;20210;-51
2021/05/13 04:24:30;;;;;;;2.40;2.20;;;;;20.00;99724.00;;;;2069570;28;20226;-52
2021/05/13 04:25:30;;;;;;;1.87;1.77;;;;;20.00;99727.00;;;;2070991;28;20221;-51
2021/05/13 04:26:30;;;;;;;2.40;2.20;;;;;20.00;99723.00;;;;2071990;28;20529;-52
2021/05/13 04:27:31;;;;;;;2.20;2.10;;;;;20.00;99713.00;;;;2072065;28;20223;-51
2021/05/13 04:28:31;;;;;;;2.47;2.27;;;;;20.00;99718.00;;;;2071994;28;20207;-52
2021/05/13 04:29:31;;;;;;;2.40;2.20;;;;;20.00;99720.00;;;;2071936;28;20226;-56
2021/05/13 04:30:32;;;;;;;1.80;1.70;;;;;20.00;99712.00;;;;2071855;28;20238;-51
2021/05/13 04:31:33;;;;;;;2.17;2.07;;;;;20.00;99714.00;;;;2071967;28;20221;-51
2021/05/13 04:32:33;;;;;;;2.30;2.10;;;;;20.00;99715.00;;;;2071870;28;20226;-51
2021/05/13 04:33:33;;;;;;;2.23;2.13;;;;;19.80;99722.00;;;;2076461;28;20461;-51
2021/05/13 04:34:34;;;;;;;2.17;2.07;;;;;20.00;99716.00;;;;2078941;28;20213;-51
2021/05/13 04:35:34;;;;;;;1.90;1.80;;;;;20.00;99723.00;;;;2080058;28;20217;-51
2021/05/13 04:36:35;;;;;;;2.43;2.23;;;;;20.00;99712.00;;;;2079912;28;20222;-51
2021/05/13 04:37:35;;;;;;;2.00;1.90;;;;;20.00;99707.00;;;;2078106;28;20213;-52
2021/05/13 04:38:35;;;;;;;1.80;1.70;;;;;20.00;99711.00;;;;2071884;28;20215;-56
2021/05/13 04:39:36;;;;;;;1.87;1.77;;;;;20.00;99721.00;;;;2071239;28;20214;-51
2021/05/13 04:40:36;;;;;;;2.10;1.90;;;;;20.00;99709.00;;;;2071027;28;20202;-51
2021/05/13 04:41:36;;;;;;;2.27;2.13;;;;;20.00;99715.00;;;;2076109;28;20203;-52
2021/05/13 04:42:37;;;;;;;2.03;1.93;;;;;20.00;99720.00;;;;2071101;28;20214;-51
2021/05/13 04:43:37;;;;;;;2.60;2.17;;;;;20.00;99714.00;;;;2071297;28;20634;-52
2021/05/13 04:44:38;;;;;;;2.00;1.90;;;;;20.00;99706.00;;;;2078635;28;20249;-51
2021/05/13 04:45:38;;;;;;;2.27;2.07;;;;;20.00;99721.00;;;;2074053;28;20214;-51
2021/05/13 04:46:38;;;;;;;2.33;2.20;;;;;20.00;99722.00;;;;2070652;28;20615;-51
2021/05/13 04:49:52;;;;;;;2.00;1.90;;;;;20.00;99714.00;;;;2071266;28;20618;-52
2021/05/13 04:50:52;;;;;;;1.73;1.63;;;;;20.00;99723.00;;;;2071447;28;20233;-51
2021/05/13 04:51:53;;;;;;;2.07;1.97;;;;;20.00;99720.00;;;;2071293;28;20218;-51
2021/05/13 04:52:53;;;;;;;2.47;2.10;;;;;20.00;99708.00;;;;2071959;28;20221;-51
2021/05/13 04:53:54;;;;;;;2.27;2.10;;;;;20.00;99715.00;;;;2079337;28;20217;-51
2021/05/13 04:54:56;;;;;;;1.97;1.87;;;;;20.00;99719.00;;;;2069348;28;20219;-51
2021/05/13 04:55:56;;;;;;;1.90;1.80;;;;;20.00;99725.00;;;;2068213;28;20214;-52
2021/05/13 04:57:00;;;;;;;2.60;2.40;;;;;20.00;99720.00;;;;2071139;28;20214;-53
2021/05/13 04:58:00;;;;;;;2.10;1.98;;;;;20.00;99723.00;;;;2071180;28;20222;-52
2021/05/13 04:59:00;;;;;;;2.20;2.10;;;;;20.00;99723.00;;;;2070904;28;20218;-51
2021/05/13 05:00:02;;;;;;;2.23;2.13;;;;;20.00;99723.00;;;;2071002;28;20709;-51
2021/05/13 05:01:03;;;;;;;2.10;2.00;;;;;20.00;99716.00;;;;2070726;28;20215;-51
2021/05/13 05:02:03;;;;;;;2.10;2.00;;;;;20.00;99717.00;;;;2071251;28;20205;-52
2021/05/13 05:03:04;;;;;;;2.30;2.10;;;;;20.00;99720.00;;;;2071374;28;20257;-51
2021/05/13 05:04:04;;;;;;;1.87;1.77;;;;;20.00;99714.00;;;;2072167;28;20242;-52
2021/05/13 05:05:05;;;;;;;1.80;1.70;;;;;20.00;99715.00;;;;2078797;28;20201;-51
2021/05/13 05:06:05;;;;;;;1.70;1.60;;;;;20.00;99714.00;;;;2079375;28;20756;-51
2021/05/13 05:07:06;;;;;;;1.87;1.77;;;;;20.00;99713.00;;;;2079240;28;21045;-52
2021/05/13 05:08:07;;;;;;;1.83;1.73;;;;;20.00;99707.00;;;;2079054;28;20213;-52
2021/05/13 05:09:07;;;;;;;1.80;1.70;;;;;20.00;99702.00;;;;2078520;28;20210;-52
2021/05/13 05:10:08;;;;;;;2.50;1.97;;;;;20.00;99704.00;;;;2071677;28;20207;-51
2021/05/13 05:11:08;;;;;;;2.50;2.30;;;;;20.00;99708.00;;;;2079737;28;20210;-51
2021/05/13 05:12:12;;;;;;;1.90;1.80;;;;;20.00;99704.00;;;;2072222;28;20458;-52
2021/05/13 05:13:12;;;;;;;2.10;1.80;;;;;20.00;99700.00;;;;2071027;28;20211;-51
2021/05/13 05:14:13;;;;;;;2.10;1.90;;;;;20.00;99696.00;;;;2069864;28;20207;-51
2021/05/13 05:15:13;;;;;;;2.50;2.30;;;;;20.00;99702.00;;;;2071157;28;20219;-51
2021/05/13 05:16:14;;;;;;;1.70;1.60;;;;;20.00;99699.00;;;;2071556;28;20261;-51
2021/05/13 05:17:14;;;;;;;1.90;1.80;;;;;20.00;99703.00;;;;2073844;28;20218;-51